createdAt,value
2022-08-17T00:01:15.120Z,18.73
2022-08-17T00:03:52.522Z,16.35
2022-08-17T00:06:29.774Z,18.98
2022-08-17T00:09:05.157Z,23.00
2022-08-17T00:11:42.906Z,18.37
2022-08-17T00:14:36.358Z,26.08
2022-08-17T00:17:08.869Z,18.17
2022-08-17T00:19:41.861Z,28.33
2022-08-17T00:22:31.580Z,24.30
2022-08-17T00:25:14.802Z,18.33
2022-08-17T00:27:47.448Z,27.13
2022-08-17T00:30:20.182Z,23.35
2022-08-17T00:33:14.032Z,24.17
2022-08-17T00:35:48.025Z,30.20
2022-08-17T00:38:22.208Z,21.33
2022-08-17T00:41:18.754Z,23.67
2022-08-17T00:44:00.325Z,28.60
2022-08-17T00:46:39.376Z,34.17
2022-08-17T00:49:15.516Z,26.83
2022-08-17T00:51:56.680Z,24.67
2022-08-17T00:54:34.058Z,26.60
2022-08-17T00:57:24.646Z,20.77
2022-08-17T01:00:09.397Z,21.50
2022-08-17T01:02:46.941Z,23.33
2022-08-17T01:05:25.572Z,19.88
2022-08-17T01:08:02.057Z,25.67
2022-08-17T01:10:58.481Z,24.00
2022-08-17T01:13:41.576Z,18.08
2022-08-17T01:16:21.736Z,23.65
2022-08-17T01:19:04.359Z,25.88
2022-08-17T01:21:54.594Z,21.20
2022-08-17T01:24:27.405Z,25.45
2022-08-17T01:27:00.555Z,24.40
2022-08-17T01:29:34.695Z,21.30
2022-08-17T01:32:09.402Z,26.10
2022-08-17T01:34:43.569Z,26.73
2022-08-17T01:37:33.504Z,31.63
2022-08-17T01:40:35.176Z,23.45
2022-08-17T01:43:21.581Z,20.45
2022-08-17T01:46:03.164Z,26.25
2022-08-17T01:48:38.649Z,28.27
2022-08-17T01:51:11.235Z,20.60
2022-08-17T01:53:52.305Z,25.95
2022-08-17T01:56:29.606Z,26.77
2022-08-17T01:59:02.915Z,22.42
2022-08-17T02:01:37.820Z,36.25
2022-08-17T02:04:11.495Z,37.97
2022-08-17T02:06:52.533Z,21.90
2022-08-17T02:09:30.180Z,17.52
2022-08-17T02:12:05.754Z,23.48
2022-08-17T02:14:56.137Z,21.00
2022-08-17T02:17:28.695Z,25.38
2022-08-17T02:20:01.202Z,21.55
2022-08-17T02:22:36.167Z,22.08
2022-08-17T02:25:13.551Z,33.35
2022-08-17T02:27:46.838Z,22.15
2022-08-17T02:30:49.860Z,23.80
2022-08-17T02:33:13.127Z,22.40
2022-08-17T02:35:46.135Z,29.25
2022-08-17T02:38:18.791Z,19.50
2022-08-17T02:40:51.770Z,21.48
2022-08-17T02:43:27.070Z,30.15
2022-08-17T02:45:59.590Z,22.20
2022-08-17T02:48:32.333Z,26.02
2022-08-17T02:51:04.864Z,20.77
2022-08-17T02:53:37.548Z,22.85
2022-08-17T02:56:10.158Z,22.95
2022-08-17T02:58:42.749Z,26.23
2022-08-17T03:01:15.701Z,36.13
2022-08-17T03:03:48.284Z,28.45
2022-08-17T03:06:20.828Z,27.27
2022-08-17T03:08:54.578Z,27.55
2022-08-17T03:11:27.248Z,44.80
2022-08-17T03:13:59.797Z,30.48
2022-08-17T03:16:32.876Z,24.98
2022-08-17T03:19:06.043Z,27.75
2022-08-17T03:21:38.618Z,27.23
2022-08-17T03:24:11.147Z,31.27
2022-08-17T03:26:44.224Z,24.23
2022-08-17T03:29:19.147Z,31.90
2022-08-17T03:31:52.295Z,23.33
2022-08-17T03:34:24.817Z,30.23
2022-08-17T03:36:57.358Z,28.13
2022-08-17T03:39:30.046Z,37.00
2022-08-17T03:42:32.015Z,28.42
2022-08-17T03:45:15.450Z,27.95
2022-08-17T03:48:06.906Z,30.38
2022-08-17T03:50:58.725Z,34.90
2022-08-17T03:53:49.989Z,28.98
2022-08-17T03:56:41.205Z,34.97
2022-08-17T03:59:23.211Z,27.38
2022-08-17T04:02:01.369Z,24.05
2022-08-17T04:04:34.192Z,48.35
2022-08-17T04:07:07.542Z,29.58
2022-08-17T04:09:40.269Z,26.25
2022-08-17T04:12:18.007Z,52.60
2022-08-17T04:14:53.894Z,29.98
2022-08-17T04:17:29.218Z,30.83
2022-08-17T04:20:01.783Z,33.80
2022-08-17T04:22:34.543Z,29.10
2022-08-17T04:25:18.360Z,36.95
2022-08-17T04:27:50.908Z,24.10
2022-08-17T04:30:24.849Z,30.27
2022-08-17T04:33:07.329Z,31.20
2022-08-17T04:35:45.657Z,27.83
2022-08-17T04:38:24.079Z,34.97
2022-08-17T04:41:17.874Z,24.45
2022-08-17T04:43:55.906Z,32.15
2022-08-17T04:46:35.131Z,27.10
2022-08-17T04:49:11.181Z,26.85
2022-08-17T04:51:49.672Z,23.88
2022-08-17T04:54:28.274Z,28.98
2022-08-17T04:57:00.818Z,34.47
2022-08-17T04:59:33.371Z,33.67
2022-08-17T05:02:05.982Z,24.25
2022-08-17T05:04:41.724Z,34.63
2022-08-17T05:07:14.239Z,32.67
2022-08-17T05:09:46.856Z,31.90
2022-08-17T05:12:19.378Z,42.42
2022-08-17T05:14:51.884Z,24.42
2022-08-17T05:17:24.423Z,27.40
2022-08-17T05:19:56.998Z,27.23
2022-08-17T05:22:29.527Z,36.00
2022-08-17T05:25:02.696Z,27.75
2022-08-17T05:27:36.400Z,28.23
2022-08-17T05:30:09.363Z,20.35
2022-08-17T05:33:06.896Z,22.83
2022-08-17T05:35:43.978Z,22.35
2022-08-17T05:38:19.644Z,23.85
2022-08-17T05:40:53.277Z,18.83
2022-08-17T05:43:39.802Z,30.77
2022-08-17T05:46:24.991Z,34.38
2022-08-17T05:49:04.485Z,20.77
2022-08-17T05:51:46.013Z,19.15
2022-08-17T05:54:53.681Z,19.95
2022-08-17T05:58:15.752Z,20.27
2022-08-17T06:01:26.498Z,22.35
2022-08-17T06:04:22.468Z,22.85
2022-08-17T06:07:14.082Z,21.92
2022-08-17T06:10:53.786Z,24.30
2022-08-17T06:13:51.821Z,18.17
2022-08-17T06:16:36.686Z,19.30
2022-08-17T06:19:22.003Z,20.52
2022-08-17T06:21:56.017Z,17.90
2022-08-17T06:24:57.761Z,32.05
2022-08-17T06:27:42.881Z,20.17
2022-08-17T06:30:26.242Z,24.00
2022-08-17T06:33:10.962Z,16.55
2022-08-17T06:36:09.395Z,20.35
2022-08-17T06:38:52.069Z,15.43
2022-08-17T06:41:45.271Z,15.93
2022-08-17T06:44:50.288Z,20.42
2022-08-17T06:47:52.821Z,17.58
2022-08-17T06:50:42.363Z,11.48
2022-08-17T06:53:30.151Z,12.35
2022-08-17T06:56:09.018Z,16.60
2022-08-17T06:58:44.813Z,19.25
2022-08-17T07:01:26.712Z,14.77
2022-08-17T07:04:15.292Z,11.30
2022-08-17T07:06:54.382Z,24.00
2022-08-17T07:09:38.771Z,11.90
2022-08-17T07:12:22.174Z,12.13
2022-08-17T07:15:20.511Z,14.32
2022-08-17T07:17:53.263Z,13.38
2022-08-17T07:20:27.773Z,14.95
2022-08-17T07:23:26.837Z,13.23
2022-08-17T07:26:09.075Z,13.60
2022-08-17T07:28:44.815Z,11.27
2022-08-17T07:31:17.597Z,18.50
2022-08-17T07:34:19.592Z,14.20
2022-08-17T07:37:05.088Z,13.02
2022-08-17T07:39:58.846Z,12.40
2022-08-17T07:42:30.127Z,16.65
2022-08-17T07:45:23.425Z,12.43
2022-08-17T07:48:15.761Z,13.38
2022-08-17T07:50:50.593Z,13.18
2022-08-17T07:53:26.130Z,11.90
2022-08-17T07:55:58.692Z,12.90
2022-08-17T07:58:31.185Z,11.45
2022-08-17T08:01:15.254Z,20.58
2022-08-17T08:06:26.308Z,15.52
2022-08-17T08:09:00.630Z,18.23
2022-08-17T08:11:39.255Z,12.02
2022-08-17T08:14:42.044Z,17.45
2022-08-17T08:17:27.287Z,14.80
2022-08-17T08:20:01.451Z,13.60
2022-08-17T08:23:17.579Z,13.63
2022-08-17T08:26:28.729Z,19.25
2022-08-17T08:29:32.402Z,11.52
2022-08-17T08:32:25.241Z,11.43
2022-08-17T08:35:08.027Z,14.20
2022-08-17T08:37:59.398Z,16.13
2022-08-17T08:41:03.046Z,11.18
2022-08-17T08:44:03.630Z,12.38
2022-08-17T08:47:08.823Z,16.13
2022-08-17T08:50:37.330Z,15.30
2022-08-17T08:53:27.271Z,13.93
2022-08-17T08:56:35.784Z,13.35
2022-08-17T08:59:44.588Z,17.52
2022-08-17T09:02:57.351Z,26.80
2022-08-17T09:05:57.222Z,12.57
2022-08-17T09:08:53.290Z,14.63
2022-08-17T09:12:04.124Z,12.68
2022-08-17T09:15:02.908Z,19.40
2022-08-17T09:17:46.938Z,22.48
2022-08-17T09:20:33.726Z,16.10
2022-08-17T09:23:25.542Z,15.45
2022-08-17T09:26:16.161Z,12.93
2022-08-17T09:29:01.366Z,22.92
2022-08-17T09:31:56.885Z,24.63
2022-08-17T09:34:48.552Z,25.98
2022-08-17T09:37:33.570Z,22.67
2022-08-17T09:40:23.237Z,13.85
2022-08-17T09:43:03.430Z,11.60
2022-08-17T09:45:57.202Z,15.30
2022-08-17T09:49:35.549Z,17.65
2022-08-17T09:52:24.870Z,15.90
2022-08-17T09:55:00.345Z,14.38
2022-08-17T09:57:43.820Z,21.17
2022-08-17T10:00:27.370Z,13.57
2022-08-17T10:03:44.102Z,17.52
2022-08-17T10:06:33.641Z,16.67
2022-08-17T10:09:12.882Z,21.17
2022-08-17T10:12:20.006Z,25.65
2022-08-17T10:15:17.460Z,27.67
2022-08-17T10:18:08.461Z,21.20
2022-08-17T10:21:22.992Z,27.48
2022-08-17T10:24:28.913Z,21.70
2022-08-17T10:27:11.496Z,22.90
2022-08-17T10:29:52.498Z,20.58
2022-08-17T10:32:46.057Z,30.40
2022-08-17T10:35:30.684Z,61.65
2022-08-17T10:38:45.950Z,21.77
2022-08-17T10:41:38.170Z,22.08
2022-08-17T10:44:46.765Z,27.23
2022-08-17T10:47:19.625Z,19.87
2022-08-17T10:49:57.330Z,20.58
2022-08-17T10:52:30.472Z,22.10
2022-08-17T10:55:06.211Z,28.50
2022-08-17T10:57:44.769Z,24.55
2022-08-17T11:00:28.372Z,18.33
2022-08-17T11:03:01.853Z,27.33
2022-08-17T11:06:00.005Z,27.10
2022-08-17T11:08:47.840Z,23.40
2022-08-17T11:11:38.809Z,27.35
2022-08-17T11:15:01.502Z,17.52
2022-08-17T11:18:01.361Z,24.70
2022-08-17T11:21:04.947Z,17.67
2022-08-17T11:23:59.846Z,16.83
2022-08-17T11:26:36.478Z,22.45
2022-08-17T11:29:29.712Z,20.00
2022-08-17T11:32:28.126Z,25.83
2022-08-17T11:35:25.254Z,14.90
2022-08-17T11:38:26.284Z,21.80
2022-08-17T11:41:33.314Z,19.80
2022-08-17T11:44:44.826Z,21.10
2022-08-17T11:48:23.612Z,18.98
2022-08-17T11:51:30.744Z,19.27
2022-08-17T11:54:41.117Z,19.23
2022-08-17T11:57:25.859Z,22.15
2022-08-17T12:00:10.426Z,25.83
2022-08-17T12:02:48.831Z,25.05
2022-08-17T12:05:32.316Z,24.90
2022-08-17T12:08:21.510Z,20.35
2022-08-17T12:11:03.233Z,22.35
2022-08-17T12:13:47.226Z,25.00
2022-08-17T12:16:21.529Z,25.27
2022-08-17T12:19:05.314Z,20.67
2022-08-17T12:21:46.540Z,17.58
2022-08-17T12:24:40.508Z,19.67
2022-08-17T12:27:57.735Z,21.00
2022-08-17T12:30:25.878Z,21.60
2022-08-17T12:32:58.532Z,20.77
2022-08-17T12:35:38.821Z,18.80
2022-08-17T12:38:33.222Z,21.23
2022-08-17T12:41:28.287Z,20.17
2022-08-17T12:44:16.669Z,29.23
2022-08-17T12:46:58.681Z,18.73
2022-08-17T12:49:36.927Z,26.77
2022-08-17T12:52:30.117Z,24.20
2022-08-17T12:55:11.805Z,26.42
2022-08-17T12:57:51.259Z,26.42
2022-08-17T13:00:31.586Z,25.50
2022-08-17T13:03:09.517Z,26.85
2022-08-17T13:06:09.331Z,33.63
2022-08-17T13:08:47.954Z,26.70
2022-08-17T13:11:24.877Z,28.27
2022-08-17T13:14:10.267Z,29.40
2022-08-17T13:16:52.377Z,31.40
2022-08-17T13:19:40.991Z,27.08
2022-08-17T13:22:13.958Z,25.80
2022-08-17T13:24:58.194Z,27.05
2022-08-17T13:27:32.782Z,27.02
2022-08-17T13:30:12.140Z,22.70
2022-08-17T13:32:47.257Z,28.80
2022-08-17T13:35:45.867Z,25.60
2022-08-17T13:38:49.443Z,29.55
2022-08-17T13:41:37.027Z,26.55
2022-08-17T13:44:37.668Z,26.30
2022-08-17T13:47:20.086Z,23.67
2022-08-17T13:49:55.282Z,25.23
2022-08-17T13:52:41.328Z,21.75
2022-08-17T13:55:22.237Z,26.13
2022-08-17T13:58:06.467Z,28.27
2022-08-17T14:00:41.061Z,27.40
2022-08-17T14:03:15.192Z,20.05
2022-08-17T14:05:50.606Z,19.65
2022-08-17T14:08:23.339Z,20.93
2022-08-17T14:10:58.604Z,17.23
2022-08-17T14:13:32.230Z,19.40
2022-08-17T14:16:04.957Z,21.30
2022-08-17T14:18:56.253Z,24.85
2022-08-17T14:21:30.338Z,33.63
2022-08-17T14:24:03.845Z,20.75
2022-08-17T14:26:36.569Z,17.60
2022-08-17T14:29:14.986Z,15.50
2022-08-17T14:31:53.479Z,17.00
2022-08-17T14:34:27.278Z,18.35
2022-08-17T14:36:59.981Z,17.00
2022-08-17T14:39:32.859Z,25.40
2022-08-17T14:42:05.723Z,21.98
2022-08-17T14:44:39.493Z,19.55
2022-08-17T14:47:12.047Z,21.40
2022-08-17T14:49:47.587Z,27.02
2022-08-17T14:52:21.813Z,33.38
2022-08-17T14:54:56.049Z,16.88
2022-08-17T14:57:33.718Z,25.38
2022-08-17T15:00:09.207Z,21.20
2022-08-17T15:02:53.674Z,23.23
2022-08-17T15:05:35.355Z,22.00
2022-08-17T15:08:08.050Z,21.40
2022-08-17T15:10:40.647Z,19.05
2022-08-17T15:13:21.903Z,22.90
2022-08-17T15:15:55.469Z,20.75
2022-08-17T15:18:29.734Z,25.63
2022-08-17T15:21:08.014Z,19.92
2022-08-17T15:23:40.688Z,21.95
2022-08-17T15:26:15.278Z,19.92
2022-08-17T15:28:49.970Z,24.95
2022-08-17T15:31:31.664Z,27.20
2022-08-17T15:34:08.003Z,24.00
2022-08-17T15:39:22.272Z,30.45
2022-08-17T15:41:58.455Z,26.17
2022-08-17T15:44:35.066Z,25.73
2022-08-17T15:47:07.829Z,24.85
2022-08-17T15:49:42.747Z,31.92
2022-08-17T15:52:15.324Z,28.90
2022-08-17T15:54:54.794Z,28.08
2022-08-17T15:57:28.103Z,23.73
2022-08-17T16:00:01.072Z,23.98
2022-08-17T16:03:14.193Z,25.25
2022-08-17T16:05:29.254Z,21.27
2022-08-17T16:08:04.324Z,23.60
2022-08-17T16:10:36.949Z,27.30
2022-08-17T16:13:17.321Z,16.77
2022-08-17T16:15:56.978Z,23.20
2022-08-17T16:18:31.891Z,17.30
2022-08-17T16:21:29.562Z,22.73
2022-08-17T16:24:13.156Z,19.13
2022-08-17T16:26:47.385Z,28.77
2022-08-17T16:29:19.951Z,21.95
2022-08-17T16:31:53.347Z,19.95
2022-08-17T16:34:25.890Z,14.50
2022-08-17T16:36:58.403Z,29.83
2022-08-17T16:39:31.463Z,28.85
2022-08-17T16:42:08.904Z,13.20
2022-08-17T16:44:41.496Z,19.73
2022-08-17T16:47:17.418Z,20.48
2022-08-17T16:49:50.537Z,13.30
2022-08-17T16:52:32.593Z,55.55
2022-08-17T16:55:09.534Z,15.40
2022-08-17T16:57:49.929Z,21.85
2022-08-17T17:00:23.310Z,16.75
2022-08-17T17:02:56.490Z,18.88
2022-08-17T17:05:51.364Z,14.05
2022-08-17T17:08:46.735Z,12.85
2022-08-17T17:11:27.343Z,17.63
2022-08-17T17:14:08.347Z,12.15
2022-08-17T17:17:05.971Z,12.75
2022-08-17T17:20:00.472Z,12.18
2022-08-17T17:22:48.370Z,9.77
2022-08-17T17:25:44.538Z,11.23
2022-08-17T17:29:09.179Z,14.27
2022-08-17T17:32:13.640Z,10.77
2022-08-17T17:35:00.648Z,11.00
2022-08-17T17:37:35.879Z,11.02
2022-08-17T17:40:21.829Z,15.05
2022-08-17T17:43:14.226Z,16.67
2022-08-17T17:46:26.625Z,14.32
2022-08-17T17:48:53.390Z,13.93
2022-08-17T17:52:02.908Z,20.15
2022-08-17T17:54:46.663Z,15.13
2022-08-17T17:57:49.753Z,21.17
2022-08-17T18:00:31.029Z,18.15
2022-08-17T18:03:12.211Z,17.98
2022-08-17T18:06:16.254Z,24.75
2022-08-17T18:09:08.844Z,28.77
2022-08-17T18:11:59.013Z,28.27
2022-08-17T18:15:12.790Z,29.38
2022-08-17T18:18:15.948Z,28.38
2022-08-17T18:20:53.941Z,26.25
2022-08-17T18:23:28.905Z,33.63
2022-08-17T18:26:02.224Z,27.60
2022-08-17T18:28:40.819Z,23.90
2022-08-17T18:31:22.003Z,26.92
2022-08-17T18:37:49.703Z,25.38
2022-08-17T18:40:31.662Z,29.13
2022-08-17T18:43:11.227Z,29.80
2022-08-17T18:45:56.572Z,28.80
2022-08-17T18:48:59.288Z,34.30
2022-08-17T18:51:41.071Z,28.40
2022-08-17T18:54:25.403Z,27.05
2022-08-17T18:57:00.402Z,27.42
2022-08-17T18:59:48.242Z,23.45
2022-08-17T19:02:39.113Z,29.85
2022-08-17T19:05:41.762Z,29.15
2022-08-17T19:08:44.401Z,28.88
2022-08-17T19:11:34.577Z,33.05
2022-08-17T19:14:11.968Z,24.13
2022-08-17T19:16:57.150Z,25.27
2022-08-17T19:19:58.757Z,31.27
2022-08-17T19:23:00.094Z,25.88
2022-08-17T19:25:42.814Z,25.42
2022-08-17T19:28:44.253Z,29.27
2022-08-17T19:31:26.380Z,29.40
2022-08-17T19:34:01.600Z,24.85
2022-08-17T19:36:56.671Z,27.67
2022-08-17T19:40:50.650Z,28.95
2022-08-17T19:43:30.520Z,25.80
2022-08-17T19:46:35.773Z,27.50
2022-08-17T19:49:33.385Z,23.75
2022-08-17T19:52:19.524Z,27.42
2022-08-17T19:55:31.893Z,25.02
2022-08-17T19:58:37.606Z,24.65
2022-08-17T20:01:22.763Z,30.23
2022-08-17T20:04:15.353Z,29.50
2022-08-17T20:06:53.167Z,28.10
2022-08-17T20:09:38.502Z,30.20
2022-08-17T20:12:18.723Z,22.38
2022-08-17T20:15:11.251Z,25.92
2022-08-17T20:17:48.410Z,29.80
2022-08-17T20:20:43.640Z,27.95
2022-08-17T20:23:51.052Z,26.08
2022-08-17T20:26:30.228Z,26.05
2022-08-17T20:29:14.891Z,34.28
2022-08-17T20:31:56.146Z,21.77
2022-08-17T20:34:37.348Z,22.63
2022-08-17T20:37:13.358Z,23.40
2022-08-17T20:40:07.392Z,27.17
2022-08-17T20:42:40.047Z,24.63
2022-08-17T20:45:21.877Z,28.05
2022-08-17T20:48:26.052Z,23.38
2022-08-17T20:51:15.171Z,22.73
2022-08-17T20:53:47.647Z,27.27
2022-08-17T20:56:46.451Z,24.42
2022-08-17T20:59:25.614Z,28.30
2022-08-17T21:02:18.573Z,24.02
2022-08-17T21:04:52.823Z,28.27
2022-08-17T21:07:42.839Z,27.15
2022-08-17T21:10:32.612Z,28.30
2022-08-17T21:13:08.300Z,32.90
2022-08-17T21:15:52.343Z,27.58
2022-08-17T21:18:49.624Z,28.90
2022-08-17T21:21:53.001Z,29.50
2022-08-17T21:24:57.706Z,30.35
2022-08-17T21:27:59.976Z,30.23
2022-08-17T21:30:32.461Z,32.95
2022-08-17T21:33:20.387Z,31.45
2022-08-17T21:36:17.247Z,33.90
2022-08-17T21:38:57.371Z,29.20
2022-08-17T21:41:44.035Z,32.95
2022-08-17T21:44:22.376Z,29.52
2022-08-17T21:47:22.685Z,36.50
2022-08-17T21:50:14.726Z,30.23
2022-08-17T21:52:50.071Z,45.33
2022-08-17T21:55:30.968Z,29.25
2022-08-17T21:58:30.351Z,33.97
2022-08-17T22:01:28.338Z,36.83
2022-08-17T22:04:08.627Z,37.75
2022-08-17T22:06:52.300Z,30.20
2022-08-17T22:09:44.712Z,35.45
2022-08-17T22:14:55.467Z,36.45
2022-08-17T22:17:36.837Z,32.65
2022-08-17T22:20:17.179Z,31.65
2022-08-17T22:23:08.295Z,40.03
2022-08-17T22:26:06.469Z,42.78
2022-08-17T22:28:53.253Z,30.45
2022-08-17T22:31:50.947Z,33.35
2022-08-17T22:34:24.304Z,35.00
2022-08-17T22:37:21.231Z,37.00
2022-08-17T22:40:00.740Z,33.40
2022-08-17T22:42:47.377Z,40.53
2022-08-17T22:45:20.195Z,42.63
2022-08-17T22:48:00.135Z,46.25
2022-08-17T22:50:35.502Z,34.80
2022-08-17T22:53:38.974Z,40.33
2022-08-17T22:56:42.083Z,35.53
2022-08-17T22:59:41.497Z,36.58
2022-08-17T23:02:22.782Z,38.92
2022-08-17T23:05:18.759Z,40.45
2022-08-17T23:07:52.872Z,42.80
2022-08-17T23:10:28.134Z,42.58
2022-08-17T23:13:01.284Z,38.58
2022-08-17T23:15:34.735Z,39.50
2022-08-17T23:18:07.916Z,37.08
2022-08-17T23:20:41.355Z,33.17
2022-08-17T23:23:14.913Z,43.28
2022-08-17T23:25:47.968Z,37.88
2022-08-17T23:28:21.806Z,37.63
2022-08-17T23:30:54.408Z,34.60
2022-08-17T23:33:33.629Z,30.17
2022-08-17T23:36:09.678Z,33.13
2022-08-17T23:38:46.730Z,34.55
2022-08-17T23:41:23.405Z,33.60
2022-08-17T23:43:56.182Z,32.63
2022-08-17T23:46:28.716Z,29.00
2022-08-17T23:49:01.551Z,38.70
2022-08-17T23:51:39.643Z,35.78
2022-08-17T23:54:43.676Z,34.53
2022-08-17T23:57:33.886Z,31.83
